Harrold, Texas
Current Conditions -  °F | °C
As of 3:36 PM on Saturday 22 Nov 2014 (Local Time) from KF05 Reporting Station
Overcast Overcast  
Wind Chill: 57°   Ceiling: 4400
Heat Index: 57°   Visibility: 5mi
Dew Point: 55°   Wind: 9mph
Humidity: 94%   Direction: 100°E
Pressure: 29.85"   Gusts: NA
Location:  34.08°N, 99.03°W
Report Text: KF05 222136Z AUTO 10008KT 5SM SCT009 BKN044 OVC060 14/13 A2985 RMK AO2 P0003
Loading
Personal Weather Stations






























Interactive Weather Map New forecast layout! Learn more

10-Day Weather Forecast

Advertisements
Track Severe Weather on mobile